sensor_id;sensor_type;location;lat;lon;timestamp;temperature;humidity
4461;DHT22;2243;48.812;9.232;2024-03-29T00:01:47;8.30;99.60
4461;DHT22;2243;48.812;9.232;2024-03-29T00:04:16;8.30;99.50
4461;DHT22;2243;48.812;9.232;2024-03-29T00:06:46;8.20;99.60
4461;DHT22;2243;48.812;9.232;2024-03-29T00:09:16;8.20;99.50
4461;DHT22;2243;48.812;9.232;2024-03-29T00:11:46;8.30;99.50
4461;DHT22;2243;48.812;9.232;2024-03-29T00:14:17;8.40;99.30
4461;DHT22;2243;48.812;9.232;2024-03-29T00:16:47;8.50;99.20
4461;DHT22;2243;48.812;9.232;2024-03-29T00:19:17;8.50;99.10
4461;DHT22;2243;48.812;9.232;2024-03-29T00:21:47;8.40;99.30
4461;DHT22;2243;48.812;9.232;2024-03-29T00:24:17;8.40;99.40
4461;DHT22;2243;48.812;9.232;2024-03-29T00:26:47;8.50;99.40
4461;DHT22;2243;48.812;9.232;2024-03-29T00:29:17;8.60;99.20
4461;DHT22;2243;48.812;9.232;2024-03-29T00:31:47;8.60;99.00
4461;DHT22;2243;48.812;9.232;2024-03-29T00:34:17;8.70;99.20
4461;DHT22;2243;48.812;9.232;2024-03-29T00:36:48;8.70;99.10
4461;DHT22;2243;48.812;9.232;2024-03-29T00:39:18;8.70;99.20
4461;DHT22;2243;48.812;9.232;2024-03-29T00:41:48;8.70;99.10
4461;DHT22;2243;48.812;9.232;2024-03-29T00:44:18;8.70;98.90
4461;DHT22;2243;48.812;9.232;2024-03-29T00:46:48;8.70;99.20
4461;DHT22;2243;48.812;9.232;2024-03-29T00:49:18;8.60;99.30
4461;DHT22;2243;48.812;9.232;2024-03-29T00:51:48;8.60;99.50
4461;DHT22;2243;48.812;9.232;2024-03-29T00:54:17;8.50;99.50
4461;DHT22;2243;48.812;9.232;2024-03-29T00:56:48;8.60;99.60
4461;DHT22;2243;48.812;9.232;2024-03-29T00:59:19;8.70;99.50
4461;DHT22;2243;48.812;9.232;2024-03-29T01:01:50;8.70;99.40
4461;DHT22;2243;48.812;9.232;2024-03-29T01:04:20;8.80;99.10
4461;DHT22;2243;48.812;9.232;2024-03-29T01:06:50;9.00;99.00
4461;DHT22;2243;48.812;9.232;2024-03-29T01:09:20;9.00;98.80
4461;DHT22;2243;48.812;9.232;2024-03-29T01:11:50;8.90;99.20
4461;DHT22;2243;48.812;9.232;2024-03-29T01:14:20;8.90;99.80
4461;DHT22;2243;48.812;9.232;2024-03-29T01:16:50;8.80;99.90
4461;DHT22;2243;48.812;9.232;2024-03-29T01:19:20;8.70;99.90
4461;DHT22;2243;48.812;9.232;2024-03-29T01:21:50;8.70;99.90
4461;DHT22;2243;48.812;9.232;2024-03-29T01:24:20;8.70;99.90
4461;DHT22;2243;48.812;9.232;2024-03-29T01:26:50;8.70;99.90
4461;DHT22;2243;48.812;9.232;2024-03-29T01:29:20;8.70;99.90
4461;DHT22;2243;48.812;9.232;2024-03-29T01:31:50;8.70;99.90
4461;DHT22;2243;48.812;9.232;2024-03-29T01:34:21;8.80;99.60
4461;DHT22;2243;48.812;9.232;2024-03-29T01:36:51;8.90;99.30
4461;DHT22;2243;48.812;9.232;2024-03-29T01:39:21;8.90;99.30
4461;DHT22;2243;48.812;9.232;2024-03-29T01:41:56;8.80;99.90
4461;DHT22;2243;48.812;9.232;2024-03-29T01:44:26;8.70;99.90
4461;DHT22;2243;48.812;9.232;2024-03-29T01:46:56;8.80;99.90
4461;DHT22;2243;48.812;9.232;2024-03-29T01:49:26;8.80;99.90
4461;DHT22;2243;48.812;9.232;2024-03-29T01:51:56;8.70;99.90
4461;DHT22;2243;48.812;9.232;2024-03-29T01:54:26;8.60;99.90
4461;DHT22;2243;48.812;9.232;2024-03-29T01:56:56;8.60;99.90
4461;DHT22;2243;48.812;9.232;2024-03-29T01:59:26;8.70;99.90
4461;DHT22;2243;48.812;9.232;2024-03-29T02:01:58;8.70;99.90
4461;DHT22;2243;48.812;9.232;2024-03-29T02:04:28;8.70;99.90
4461;DHT22;2243;48.812;9.232;2024-03-29T02:06:58;8.70;99.90
4461;DHT22;2243;48.812;9.232;2024-03-29T02:09:29;8.60;99.90
4461;DHT22;2243;48.812;9.232;2024-03-29T02:11:59;8.60;99.90
4461;DHT22;2243;48.812;9.232;2024-03-29T02:14:29;8.80;99.90
4461;DHT22;2243;48.812;9.232;2024-03-29T02:16:59;9.00;99.80
4461;DHT22;2243;48.812;9.232;2024-03-29T02:19:29;8.90;99.50
4461;DHT22;2243;48.812;9.232;2024-03-29T02:22:00;9.00;99.30
4461;DHT22;2243;48.812;9.232;2024-03-29T02:24:31;8.90;99.40
4461;DHT22;2243;48.812;9.232;2024-03-29T02:27:01;9.00;99.50
4461;DHT22;2243;48.812;9.232;2024-03-29T02:29:31;9.00;99.10
4461;DHT22;2243;48.812;9.232;2024-03-29T02:32:05;9.00;99.20
4461;DHT22;2243;48.812;9.232;2024-03-29T02:34:35;9.20;98.90
4461;DHT22;2243;48.812;9.232;2024-03-29T02:37:05;9.20;98.60
4461;DHT22;2243;48.812;9.232;2024-03-29T02:39:35;9.30;98.60
4461;DHT22;2243;48.812;9.232;2024-03-29T02:42:06;9.30;98.40
4461;DHT22;2243;48.812;9.232;2024-03-29T02:44:36;9.10;98.70
4461;DHT22;2243;48.812;9.232;2024-03-29T02:47:06;9.20;98.70
4461;DHT22;2243;48.812;9.232;2024-03-29T02:49:36;9.30;98.60
4461;DHT22;2243;48.812;9.232;2024-03-29T02:52:06;9.20;98.80
4461;DHT22;2243;48.812;9.232;2024-03-29T02:54:36;9.30;98.70
4461;DHT22;2243;48.812;9.232;2024-03-29T02:57:06;9.30;98.70
4461;DHT22;2243;48.812;9.232;2024-03-29T02:59:36;9.30;98.50
4461;DHT22;2243;48.812;9.232;2024-03-29T03:02:06;9.40;98.50
4461;DHT22;2243;48.812;9.232;2024-03-29T03:04:36;9.50;98.40
4461;DHT22;2243;48.812;9.232;2024-03-29T03:07:06;9.50;98.20
4461;DHT22;2243;48.812;9.232;2024-03-29T03:09:55;9.50;98.30
4461;DHT22;2243;48.812;9.232;2024-03-29T03:12:43;9.40;99.00
4461;DHT22;2243;48.812;9.232;2024-03-29T03:15:13;9.30;99.60
4461;DHT22;2243;48.812;9.232;2024-03-29T03:17:43;9.20;99.30
4461;DHT22;2243;48.812;9.232;2024-03-29T03:20:13;9.30;99.40
4461;DHT22;2243;48.812;9.232;2024-03-29T03:22:45;9.20;99.30
4461;DHT22;2243;48.812;9.232;2024-03-29T03:25:15;9.20;99.00
4461;DHT22;2243;48.812;9.232;2024-03-29T03:27:45;9.20;98.90
4461;DHT22;2243;48.812;9.232;2024-03-29T03:30:15;9.30;98.70
4461;DHT22;2243;48.812;9.232;2024-03-29T03:32:45;9.30;98.80
4461;DHT22;2243;48.812;9.232;2024-03-29T03:35:15;9.30;98.80
4461;DHT22;2243;48.812;9.232;2024-03-29T03:37:45;9.40;98.60
4461;DHT22;2243;48.812;9.232;2024-03-29T03:40:15;9.40;98.60
4461;DHT22;2243;48.812;9.232;2024-03-29T03:42:45;9.40;98.60
4461;DHT22;2243;48.812;9.232;2024-03-29T03:45:15;9.40;98.40
4461;DHT22;2243;48.812;9.232;2024-03-29T03:47:45;9.40;98.40
4461;DHT22;2243;48.812;9.232;2024-03-29T03:50:15;9.50;98.50
4461;DHT22;2243;48.812;9.232;2024-03-29T03:52:45;9.40;99.00
4461;DHT22;2243;48.812;9.232;2024-03-29T03:55:15;9.40;99.20
4461;DHT22;2243;48.812;9.232;2024-03-29T03:57:45;9.40;99.00
4461;DHT22;2243;48.812;9.232;2024-03-29T04:00:17;9.40;98.70
4461;DHT22;2243;48.812;9.232;2024-03-29T04:02:51;9.40;98.60
4461;DHT22;2243;48.812;9.232;2024-03-29T04:05:21;9.40;98.50
4461;DHT22;2243;48.812;9.232;2024-03-29T04:07:52;9.50;98.50
4461;DHT22;2243;48.812;9.232;2024-03-29T04:10:22;9.50;98.40
4461;DHT22;2243;48.812;9.232;2024-03-29T04:12:52;9.50;98.60
4461;DHT22;2243;48.812;9.232;2024-03-29T04:15:21;9.40;98.80
4461;DHT22;2243;48.812;9.232;2024-03-29T04:17:51;9.40;98.90
4461;DHT22;2243;48.812;9.232;2024-03-29T04:20:21;9.40;98.90
4461;DHT22;2243;48.812;9.232;2024-03-29T04:22:51;9.40;99.10
4461;DHT22;2243;48.812;9.232;2024-03-29T04:25:21;9.40;99.30
4461;DHT22;2243;48.812;9.232;2024-03-29T04:27:51;9.50;99.20
4461;DHT22;2243;48.812;9.232;2024-03-29T04:30:21;9.50;99.30
4461;DHT22;2243;48.812;9.232;2024-03-29T04:32:51;9.50;99.60
4461;DHT22;2243;48.812;9.232;2024-03-29T04:35:21;9.50;99.30
4461;DHT22;2243;48.812;9.232;2024-03-29T04:37:51;9.60;98.60
4461;DHT22;2243;48.812;9.232;2024-03-29T04:40:21;9.70;98.00
4461;DHT22;2243;48.812;9.232;2024-03-29T04:42:51;9.80;97.10
4461;DHT22;2243;48.812;9.232;2024-03-29T04:45:21;9.90;96.90
4461;DHT22;2243;48.812;9.232;2024-03-29T04:47:51;9.90;96.70
4461;DHT22;2243;48.812;9.232;2024-03-29T04:50:21;9.90;97.00
4461;DHT22;2243;48.812;9.232;2024-03-29T04:52:51;9.80;97.00
4461;DHT22;2243;48.812;9.232;2024-03-29T04:55:21;9.90;97.30
4461;DHT22;2243;48.812;9.232;2024-03-29T04:57:51;9.70;98.40
4461;DHT22;2243;48.812;9.232;2024-03-29T05:00:20;9.60;99.10
4461;DHT22;2243;48.812;9.232;2024-03-29T05:02:51;9.60;99.30
4461;DHT22;2243;48.812;9.232;2024-03-29T05:05:21;9.70;98.70
4461;DHT22;2243;48.812;9.232;2024-03-29T05:07:50;9.80;98.10
4461;DHT22;2243;48.812;9.232;2024-03-29T05:10:20;9.80;97.80
4461;DHT22;2243;48.812;9.232;2024-03-29T05:12:52;9.80;98.30
4461;DHT22;2243;48.812;9.232;2024-03-29T05:15:23;9.70;99.00
4461;DHT22;2243;48.812;9.232;2024-03-29T05:17:53;9.70;98.60
4461;DHT22;2243;48.812;9.232;2024-03-29T05:20:23;9.70;98.30
4461;DHT22;2243;48.812;9.232;2024-03-29T05:22:53;9.70;98.50
4461;DHT22;2243;48.812;9.232;2024-03-29T05:25:23;9.70;99.30
4461;DHT22;2243;48.812;9.232;2024-03-29T05:27:53;9.80;99.50
4461;DHT22;2243;48.812;9.232;2024-03-29T05:30:23;9.80;99.00
4461;DHT22;2243;48.812;9.232;2024-03-29T05:32:54;9.70;97.80
4461;DHT22;2243;48.812;9.232;2024-03-29T05:35:24;9.70;97.60
4461;DHT22;2243;48.812;9.232;2024-03-29T05:37:53;9.80;97.60
4461;DHT22;2243;48.812;9.232;2024-03-29T05:40:24;9.90;97.40
4461;DHT22;2243;48.812;9.232;2024-03-29T05:42:57;10.00;97.30
4461;DHT22;2243;48.812;9.232;2024-03-29T05:45:29;10.10;97.10
4461;DHT22;2243;48.812;9.232;2024-03-29T05:47:59;10.00;96.90
4461;DHT22;2243;48.812;9.232;2024-03-29T05:50:29;10.00;96.80
4461;DHT22;2243;48.812;9.232;2024-03-29T05:52:59;10.00;96.70
4461;DHT22;2243;48.812;9.232;2024-03-29T05:55:30;10.00;96.60
4461;DHT22;2243;48.812;9.232;2024-03-29T05:58:00;10.10;96.50
4461;DHT22;2243;48.812;9.232;2024-03-29T06:00:30;10.10;96.50
4461;DHT22;2243;48.812;9.232;2024-03-29T06:03:02;10.00;96.40
4461;DHT22;2243;48.812;9.232;2024-03-29T06:05:32;10.00;96.70
4461;DHT22;2243;48.812;9.232;2024-03-29T06:08:02;10.10;96.70
4461;DHT22;2243;48.812;9.232;2024-03-29T06:10:35;10.10;96.70
4461;DHT22;2243;48.812;9.232;2024-03-29T06:13:05;10.00;96.60
4461;DHT22;2243;48.812;9.232;2024-03-29T06:15:39;9.90;96.70
4461;DHT22;2243;48.812;9.232;2024-03-29T06:18:28;9.90;97.00
4461;DHT22;2243;48.812;9.232;2024-03-29T06:20:58;9.80;97.10
4461;DHT22;2243;48.812;9.232;2024-03-29T06:23:28;9.80;97.10
4461;DHT22;2243;48.812;9.232;2024-03-29T06:25:58;9.80;97.20
4461;DHT22;2243;48.812;9.232;2024-03-29T06:28:27;9.90;96.90
4461;DHT22;2243;48.812;9.232;2024-03-29T06:30:57;10.00;96.80
4461;DHT22;2243;48.812;9.232;2024-03-29T06:33:30;10.10;96.50
4461;DHT22;2243;48.812;9.232;2024-03-29T06:35:59;10.20;96.40
4461;DHT22;2243;48.812;9.232;2024-03-29T06:38:29;10.30;95.60
4461;DHT22;2243;48.812;9.232;2024-03-29T06:41:00;10.40;95.50
4461;DHT22;2243;48.812;9.232;2024-03-29T06:43:31;10.50;95.10
4461;DHT22;2243;48.812;9.232;2024-03-29T06:46:00;10.60;95.00
4461;DHT22;2243;48.812;9.232;2024-03-29T06:48:32;10.70;95.00
4461;DHT22;2243;48.812;9.232;2024-03-29T06:51:03;10.70;95.00
4461;DHT22;2243;48.812;9.232;2024-03-29T06:53:33;10.70;95.00
4461;DHT22;2243;48.812;9.232;2024-03-29T06:56:03;10.80;94.90
4461;DHT22;2243;48.812;9.232;2024-03-29T06:58:33;10.60;94.80
4461;DHT22;2243;48.812;9.232;2024-03-29T07:01:03;10.70;95.10
4461;DHT22;2243;48.812;9.232;2024-03-29T07:03:33;10.80;94.90
4461;DHT22;2243;48.812;9.232;2024-03-29T07:06:04;10.90;94.80
4461;DHT22;2243;48.812;9.232;2024-03-29T07:08:34;11.00;94.80
4461;DHT22;2243;48.812;9.232;2024-03-29T07:11:04;11.00;94.50
4461;DHT22;2243;48.812;9.232;2024-03-29T07:13:34;11.00;94.40
4461;DHT22;2243;48.812;9.232;2024-03-29T07:16:04;11.10;94.60
4461;DHT22;2243;48.812;9.232;2024-03-29T07:18:36;11.10;94.50
4461;DHT22;2243;48.812;9.232;2024-03-29T07:21:06;11.20;94.40
4461;DHT22;2243;48.812;9.232;2024-03-29T07:23:36;11.10;94.50
4461;DHT22;2243;48.812;9.232;2024-03-29T07:26:06;11.10;94.50
4461;DHT22;2243;48.812;9.232;2024-03-29T07:28:36;11.10;94.70
4461;DHT22;2243;48.812;9.232;2024-03-29T07:31:07;11.00;94.80
4461;DHT22;2243;48.812;9.232;2024-03-29T07:33:37;11.00;94.90
4461;DHT22;2243;48.812;9.232;2024-03-29T07:36:07;10.90;94.90
4461;DHT22;2243;48.812;9.232;2024-03-29T07:38:40;10.90;95.20
4461;DHT22;2243;48.812;9.232;2024-03-29T07:41:10;11.00;96.00
4461;DHT22;2243;48.812;9.232;2024-03-29T07:43:41;10.90;99.00
4461;DHT22;2243;48.812;9.232;2024-03-29T07:46:20;10.80;99.90
4461;DHT22;2243;48.812;9.232;2024-03-29T07:48:51;10.60;99.90
4461;DHT22;2243;48.812;9.232;2024-03-29T07:51:21;10.40;99.90
4461;DHT22;2243;48.812;9.232;2024-03-29T07:53:51;10.20;99.90
4461;DHT22;2243;48.812;9.232;2024-03-29T07:56:21;10.10;99.90
4461;DHT22;2243;48.812;9.232;2024-03-29T07:58:53;10.10;99.90
4461;DHT22;2243;48.812;9.232;2024-03-29T08:01:23;10.00;99.90
4461;DHT22;2243;48.812;9.232;2024-03-29T08:03:53;10.00;99.90
4461;DHT22;2243;48.812;9.232;2024-03-29T08:06:23;9.90;99.90
4461;DHT22;2243;48.812;9.232;2024-03-29T08:08:53;9.90;99.90
4461;DHT22;2243;48.812;9.232;2024-03-29T08:11:23;9.90;99.90
4461;DHT22;2243;48.812;9.232;2024-03-29T08:13:53;10.00;99.90
4461;DHT22;2243;48.812;9.232;2024-03-29T08:16:23;9.90;99.90
4461;DHT22;2243;48.812;9.232;2024-03-29T08:18:53;9.90;99.90
4461;DHT22;2243;48.812;9.232;2024-03-29T08:21:23;9.90;99.90
4461;DHT22;2243;48.812;9.232;2024-03-29T08:23:53;10.60;99.90
4461;DHT22;2243;48.812;9.232;2024-03-29T08:26:24;11.40;99.90
4461;DHT22;2243;48.812;9.232;2024-03-29T08:28:54;12.00;99.90
4461;DHT22;2243;48.812;9.232;2024-03-29T08:31:25;12.40;99.90
4461;DHT22;2243;48.812;9.232;2024-03-29T08:33:55;12.40;99.90
4461;DHT22;2243;48.812;9.232;2024-03-29T08:36:25;12.00;99.90
4461;DHT22;2243;48.812;9.232;2024-03-29T08:38:55;11.60;99.90
4461;DHT22;2243;48.812;9.232;2024-03-29T08:41:25;11.10;99.90
4461;DHT22;2243;48.812;9.232;2024-03-29T08:43:55;10.90;99.90
4461;DHT22;2243;48.812;9.232;2024-03-29T08:46:25;10.80;99.90
4461;DHT22;2243;48.812;9.232;2024-03-29T08:48:55;10.50;99.90
4461;DHT22;2243;48.812;9.232;2024-03-29T08:51:25;10.30;99.90
4461;DHT22;2243;48.812;9.232;2024-03-29T08:53:55;10.30;99.90
4461;DHT22;2243;48.812;9.232;2024-03-29T08:56:27;10.20;99.90
4461;DHT22;2243;48.812;9.232;2024-03-29T08:58:57;10.00;99.90
4461;DHT22;2243;48.812;9.232;2024-03-29T09:01:30;10.10;99.90
4461;DHT22;2243;48.812;9.232;2024-03-29T09:04:00;10.10;99.90
4461;DHT22;2243;48.812;9.232;2024-03-29T09:06:30;10.20;99.90
4461;DHT22;2243;48.812;9.232;2024-03-29T09:09:00;10.20;99.90
4461;DHT22;2243;48.812;9.232;2024-03-29T09:11:30;10.20;99.90
4461;DHT22;2243;48.812;9.232;2024-03-29T09:14:00;10.20;99.90
4461;DHT22;2243;48.812;9.232;2024-03-29T09:16:31;10.30;99.90
4461;DHT22;2243;48.812;9.232;2024-03-29T09:19:00;10.30;99.90
4461;DHT22;2243;48.812;9.232;2024-03-29T09:21:30;10.40;99.90
4461;DHT22;2243;48.812;9.232;2024-03-29T09:24:00;10.40;99.90
4461;DHT22;2243;48.812;9.232;2024-03-29T09:26:30;10.40;99.90
4461;DHT22;2243;48.812;9.232;2024-03-29T09:29:01;10.50;99.90
4461;DHT22;2243;48.812;9.232;2024-03-29T09:31:31;10.50;99.90
4461;DHT22;2243;48.812;9.232;2024-03-29T09:34:01;10.50;99.90
4461;DHT22;2243;48.812;9.232;2024-03-29T09:36:31;10.40;99.90
4461;DHT22;2243;48.812;9.232;2024-03-29T09:39:01;10.40;99.90
4461;DHT22;2243;48.812;9.232;2024-03-29T09:41:33;10.40;99.90
4461;DHT22;2243;48.812;9.232;2024-03-29T09:44:07;10.50;99.90
4461;DHT22;2243;48.812;9.232;2024-03-29T09:46:41;10.50;99.90
4461;DHT22;2243;48.812;9.232;2024-03-29T09:49:11;10.50;99.90
4461;DHT22;2243;48.812;9.232;2024-03-29T09:51:44;10.40;99.90
4461;DHT22;2243;48.812;9.232;2024-03-29T09:54:14;10.50;99.90
4461;DHT22;2243;48.812;9.232;2024-03-29T09:56:45;10.60;99.90
4461;DHT22;2243;48.812;9.232;2024-03-29T09:59:15;10.50;99.90
4461;DHT22;2243;48.812;9.232;2024-03-29T10:01:46;10.70;99.90
4461;DHT22;2243;48.812;9.232;2024-03-29T10:04:18;10.80;99.90
4461;DHT22;2243;48.812;9.232;2024-03-29T10:06:51;10.80;99.90
4461;DHT22;2243;48.812;9.232;2024-03-29T10:09:22;10.90;99.90
4461;DHT22;2243;48.812;9.232;2024-03-29T10:11:52;11.00;99.90
4461;DHT22;2243;48.812;9.232;2024-03-29T10:21:41;11.30;99.90
4461;DHT22;2243;48.812;9.232;2024-03-29T10:24:16;11.30;99.90
4461;DHT22;2243;48.812;9.232;2024-03-29T10:26:48;11.40;99.90
4461;DHT22;2243;48.812;9.232;2024-03-29T10:29:18;11.50;99.90
4461;DHT22;2243;48.812;9.232;2024-03-29T10:31:48;11.70;99.90
4461;DHT22;2243;48.812;9.232;2024-03-29T10:34:21;11.80;99.90
4461;DHT22;2243;48.812;9.232;2024-03-29T10:36:53;11.70;99.90
4461;DHT22;2243;48.812;9.232;2024-03-29T10:39:23;11.70;99.90
4461;DHT22;2243;48.812;9.232;2024-03-29T10:41:54;11.80;99.90
4461;DHT22;2243;48.812;9.232;2024-03-29T10:44:25;11.80;99.90
4461;DHT22;2243;48.812;9.232;2024-03-29T10:46:57;11.90;99.90
4461;DHT22;2243;48.812;9.232;2024-03-29T10:49:30;11.90;99.90
4461;DHT22;2243;48.812;9.232;2024-03-29T10:52:03;12.00;99.90
4461;DHT22;2243;48.812;9.232;2024-03-29T10:54:34;12.10;99.90
4461;DHT22;2243;48.812;9.232;2024-03-29T10:57:15;12.20;99.90
4461;DHT22;2243;48.812;9.232;2024-03-29T11:00:03;12.20;99.90
4461;DHT22;2243;48.812;9.232;2024-03-29T11:05:50;12.50;99.90
4461;DHT22;2243;48.812;9.232;2024-03-29T11:08:23;12.80;99.90
4461;DHT22;2243;48.812;9.232;2024-03-29T11:10:57;12.90;99.90
4461;DHT22;2243;48.812;9.232;2024-03-29T11:16:19;12.80;99.90
4461;DHT22;2243;48.812;9.232;2024-03-29T11:18:51;12.80;99.90
4461;DHT22;2243;48.812;9.232;2024-03-29T11:21:22;13.00;99.90
4461;DHT22;2243;48.812;9.232;2024-03-29T11:23:54;13.00;99.90
4461;DHT22;2243;48.812;9.232;2024-03-29T11:26:27;13.10;99.90
4461;DHT22;2243;48.812;9.232;2024-03-29T11:28:57;13.20;99.90
4461;DHT22;2243;48.812;9.232;2024-03-29T11:31:28;13.20;99.90
4461;DHT22;2243;48.812;9.232;2024-03-29T11:34:02;13.20;99.90
4461;DHT22;2243;48.812;9.232;2024-03-29T11:36:32;13.30;99.90
4461;DHT22;2243;48.812;9.232;2024-03-29T11:39:02;13.40;99.90
4461;DHT22;2243;48.812;9.232;2024-03-29T11:41:32;13.40;99.90
4461;DHT22;2243;48.812;9.232;2024-03-29T11:44:02;13.40;99.90
4461;DHT22;2243;48.812;9.232;2024-03-29T11:46:32;13.40;99.90
4461;DHT22;2243;48.812;9.232;2024-03-29T11:49:05;13.50;99.90
4461;DHT22;2243;48.812;9.232;2024-03-29T11:51:35;13.50;99.90
4461;DHT22;2243;48.812;9.232;2024-03-29T11:54:05;13.60;99.90
4461;DHT22;2243;48.812;9.232;2024-03-29T11:56:36;13.70;99.90
4461;DHT22;2243;48.812;9.232;2024-03-29T11:59:07;13.70;99.90
4461;DHT22;2243;48.812;9.232;2024-03-29T12:01:37;13.70;99.90
4461;DHT22;2243;48.812;9.232;2024-03-29T12:04:22;13.60;99.90
4461;DHT22;2243;48.812;9.232;2024-03-29T12:06:52;13.70;99.90
4461;DHT22;2243;48.812;9.232;2024-03-29T12:09:22;13.70;99.90
4461;DHT22;2243;48.812;9.232;2024-03-29T12:11:52;13.70;99.90
4461;DHT22;2243;48.812;9.232;2024-03-29T12:14:23;13.70;99.90
4461;DHT22;2243;48.812;9.232;2024-03-29T12:16:54;13.70;99.90
4461;DHT22;2243;48.812;9.232;2024-03-29T12:19:24;13.80;99.90
4461;DHT22;2243;48.812;9.232;2024-03-29T12:21:54;13.90;99.90
4461;DHT22;2243;48.812;9.232;2024-03-29T12:24:25;13.90;99.90
4461;DHT22;2243;48.812;9.232;2024-03-29T12:26:55;14.20;99.90
4461;DHT22;2243;48.812;9.232;2024-03-29T12:29:25;14.30;99.90
4461;DHT22;2243;48.812;9.232;2024-03-29T12:32:02;14.40;99.90
4461;DHT22;2243;48.812;9.232;2024-03-29T12:34:34;14.50;99.90
4461;DHT22;2243;48.812;9.232;2024-03-29T12:37:04;14.80;99.90
4461;DHT22;2243;48.812;9.232;2024-03-29T12:39:34;15.00;99.90
4461;DHT22;2243;48.812;9.232;2024-03-29T12:42:05;15.00;99.90
4461;DHT22;2243;48.812;9.232;2024-03-29T12:44:35;15.20;99.90
4461;DHT22;2243;48.812;9.232;2024-03-29T12:47:05;15.40;99.90
4461;DHT22;2243;48.812;9.232;2024-03-29T12:49:40;15.50;99.90
4461;DHT22;2243;48.812;9.232;2024-03-29T12:52:10;15.50;99.90
4461;DHT22;2243;48.812;9.232;2024-03-29T12:54:40;15.70;99.90
4461;DHT22;2243;48.812;9.232;2024-03-29T12:57:10;15.90;99.90
4461;DHT22;2243;48.812;9.232;2024-03-29T12:59:40;16.00;99.90
4461;DHT22;2243;48.812;9.232;2024-03-29T13:02:10;16.20;99.90
4461;DHT22;2243;48.812;9.232;2024-03-29T13:04:40;16.30;99.90
4461;DHT22;2243;48.812;9.232;2024-03-29T13:07:13;16.20;99.90
4461;DHT22;2243;48.812;9.232;2024-03-29T13:09:44;16.30;99.90
4461;DHT22;2243;48.812;9.232;2024-03-29T13:12:14;16.30;99.90
4461;DHT22;2243;48.812;9.232;2024-03-29T13:14:44;16.50;99.90
4461;DHT22;2243;48.812;9.232;2024-03-29T13:17:14;16.60;99.90
4461;DHT22;2243;48.812;9.232;2024-03-29T13:19:44;16.70;99.90
4461;DHT22;2243;48.812;9.232;2024-03-29T13:22:14;17.00;99.90
4461;DHT22;2243;48.812;9.232;2024-03-29T13:24:44;17.30;99.90
4461;DHT22;2243;48.812;9.232;2024-03-29T13:27:16;17.40;99.90
4461;DHT22;2243;48.812;9.232;2024-03-29T13:29:46;17.50;99.90
4461;DHT22;2243;48.812;9.232;2024-03-29T13:32:16;17.90;99.90
4461;DHT22;2243;48.812;9.232;2024-03-29T13:34:46;17.90;99.90
4461;DHT22;2243;48.812;9.232;2024-03-29T13:37:16;18.00;99.90
4461;DHT22;2243;48.812;9.232;2024-03-29T13:39:46;17.90;99.90
4461;DHT22;2243;48.812;9.232;2024-03-29T13:42:15;18.00;99.90
4461;DHT22;2243;48.812;9.232;2024-03-29T13:44:45;18.10;99.90
4461;DHT22;2243;48.812;9.232;2024-03-29T13:47:16;18.30;99.90
4461;DHT22;2243;48.812;9.232;2024-03-29T13:49:47;18.50;99.90
4461;DHT22;2243;48.812;9.232;2024-03-29T13:52:17;18.60;99.90
4461;DHT22;2243;48.812;9.232;2024-03-29T13:54:47;18.60;99.90
4461;DHT22;2243;48.812;9.232;2024-03-29T13:57:17;18.70;99.90
4461;DHT22;2243;48.812;9.232;2024-03-29T13:59:47;18.90;99.90
4461;DHT22;2243;48.812;9.232;2024-03-29T14:02:18;19.10;99.90
4461;DHT22;2243;48.812;9.232;2024-03-29T14:04:48;19.30;99.90
4461;DHT22;2243;48.812;9.232;2024-03-29T14:07:19;19.40;99.90
4461;DHT22;2243;48.812;9.232;2024-03-29T14:09:53;19.30;99.90
4461;DHT22;2243;48.812;9.232;2024-03-29T14:12:24;19.30;99.90
4461;DHT22;2243;48.812;9.232;2024-03-29T14:14:56;19.20;99.90
4461;DHT22;2243;48.812;9.232;2024-03-29T14:17:26;19.20;99.90
4461;DHT22;2243;48.812;9.232;2024-03-29T14:19:57;19.10;99.90
4461;DHT22;2243;48.812;9.232;2024-03-29T14:22:28;19.20;99.90
4461;DHT22;2243;48.812;9.232;2024-03-29T14:25:01;19.40;99.90
4461;DHT22;2243;48.812;9.232;2024-03-29T14:27:32;19.40;99.90
4461;DHT22;2243;48.812;9.232;2024-03-29T14:30:03;19.60;99.90
4461;DHT22;2243;48.812;9.232;2024-03-29T14:32:34;19.50;99.90
4461;DHT22;2243;48.812;9.232;2024-03-29T14:35:04;19.60;99.70
4461;DHT22;2243;48.812;9.232;2024-03-29T14:37:34;19.60;99.90
4461;DHT22;2243;48.812;9.232;2024-03-29T14:40:04;19.60;99.90
4461;DHT22;2243;48.812;9.232;2024-03-29T14:42:35;19.50;99.90
4461;DHT22;2243;48.812;9.232;2024-03-29T14:45:09;19.50;99.20
4461;DHT22;2243;48.812;9.232;2024-03-29T14:47:41;19.60;99.40
4461;DHT22;2243;48.812;9.232;2024-03-29T14:50:12;19.80;99.20
4461;DHT22;2243;48.812;9.232;2024-03-29T14:52:42;19.90;99.60
4461;DHT22;2243;48.812;9.232;2024-03-29T14:55:12;20.20;99.00
4461;DHT22;2243;48.812;9.232;2024-03-29T14:57:42;20.30;98.50
4461;DHT22;2243;48.812;9.232;2024-03-29T15:00:12;20.30;98.40
4461;DHT22;2243;48.812;9.232;2024-03-29T15:02:43;20.40;98.00
4461;DHT22;2243;48.812;9.232;2024-03-29T15:05:14;20.40;98.30
4461;DHT22;2243;48.812;9.232;2024-03-29T15:07:44;20.10;98.70
4461;DHT22;2243;48.812;9.232;2024-03-29T15:10:14;20.10;98.90
4461;DHT22;2243;48.812;9.232;2024-03-29T15:12:45;20.00;98.30
4461;DHT22;2243;48.812;9.232;2024-03-29T15:15:21;19.90;97.50
4461;DHT22;2243;48.812;9.232;2024-03-29T15:17:54;19.90;96.70
4461;DHT22;2243;48.812;9.232;2024-03-29T15:20:25;19.90;96.50
4461;DHT22;2243;48.812;9.232;2024-03-29T15:22:55;19.80;96.60
4461;DHT22;2243;48.812;9.232;2024-03-29T15:25:26;19.60;97.20
4461;DHT22;2243;48.812;9.232;2024-03-29T15:27:56;19.60;97.70
4461;DHT22;2243;48.812;9.232;2024-03-29T15:30:41;19.60;98.40
4461;DHT22;2243;48.812;9.232;2024-03-29T15:33:15;19.60;97.10
4461;DHT22;2243;48.812;9.232;2024-03-29T15:35:45;19.70;97.10
4461;DHT22;2243;48.812;9.232;2024-03-29T15:38:15;19.70;97.20
4461;DHT22;2243;48.812;9.232;2024-03-29T15:40:53;19.50;97.30
4461;DHT22;2243;48.812;9.232;2024-03-29T15:43:24;19.60;97.30
4461;DHT22;2243;48.812;9.232;2024-03-29T15:45:55;19.60;97.20
4461;DHT22;2243;48.812;9.232;2024-03-29T15:48:25;19.50;97.50
4461;DHT22;2243;48.812;9.232;2024-03-29T15:50:55;19.40;97.60
4461;DHT22;2243;48.812;9.232;2024-03-29T15:53:25;19.40;97.40
4461;DHT22;2243;48.812;9.232;2024-03-29T15:55:55;19.40;97.20
4461;DHT22;2243;48.812;9.232;2024-03-29T15:58:27;19.20;97.60
4461;DHT22;2243;48.812;9.232;2024-03-29T16:00:57;19.00;97.80
4461;DHT22;2243;48.812;9.232;2024-03-29T16:03:27;18.80;97.80
4461;DHT22;2243;48.812;9.232;2024-03-29T16:05:57;18.90;97.80
4461;DHT22;2243;48.812;9.232;2024-03-29T16:08:29;18.80;98.00
4461;DHT22;2243;48.812;9.232;2024-03-29T16:11:08;18.70;97.80
4461;DHT22;2243;48.812;9.232;2024-03-29T16:13:38;18.70;98.40
4461;DHT22;2243;48.812;9.232;2024-03-29T16:16:11;18.70;98.90
4461;DHT22;2243;48.812;9.232;2024-03-29T16:18:41;18.60;99.40
4461;DHT22;2243;48.812;9.232;2024-03-29T16:21:11;18.50;99.90
4461;DHT22;2243;48.812;9.232;2024-03-29T16:23:41;18.30;99.90
4461;DHT22;2243;48.812;9.232;2024-03-29T16:26:11;18.40;99.90
4461;DHT22;2243;48.812;9.232;2024-03-29T16:28:41;18.30;99.90
4461;DHT22;2243;48.812;9.232;2024-03-29T16:31:11;18.10;99.90
4461;DHT22;2243;48.812;9.232;2024-03-29T16:33:41;18.00;99.90
4461;DHT22;2243;48.812;9.232;2024-03-29T16:36:11;17.90;99.90
4461;DHT22;2243;48.812;9.232;2024-03-29T16:38:41;17.80;99.90
4461;DHT22;2243;48.812;9.232;2024-03-29T16:41:11;17.70;99.90
4461;DHT22;2243;48.812;9.232;2024-03-29T16:43:41;17.50;99.90